Bragg City, MO (63827)

5:41 PM CDT on August 01, 2014 (GMT -0500)
Peach Orchard (KMOGIDEO2) Elev 263 ft | 36.37 °N, 89.94 °W | Change Station

Current weather conditions updated 4 seconds ago

Partly Cloudy
Partly Cloudy
84.0 °F
Feels Like 86 °F
N
2.0
Wind Variable Wind from NE
Gusts 2.0 mph

Tomorrow is forecast to be Warmer than today.

Today
High -- | Low -- °F
--% Chance of Precip.
Yesterday
High -- | Low -- °F
Precip. -- in
6:06 AM 8:04 PM
Waxing Crescent, 30% visible
Pressure 30.03 in
Visibility 10.0 miles
Clouds Few 4400 ft
Heat Index 86 °F
Dew Point 66 °F
Humidity 55%
Rainfall 0.00 in
Snow Depth Not available.
UV 7 out of 12
Pollen 7.00 out of 12
Air Quality Not available.
Flu Activity Not available.
METAR KHKA 012053Z AUTO 05005KT 10SM FEW044 29/19 A3003 RMK AO2 SLP167 T02890189 58012 $

More Conditions Fewer Conditions

Pressure 30.03 in
Visibility 10.0 miles
Clouds Few 4400 ft
Heat Index 86 °F
Dew Point 66 °F
Humidity 55%
Rainfall 0.00 in
Snow Depth Not available.
UV 7 out of 12
Pollen 7.00 out of 12
Air Quality Not available.
Flu Activity Not available.
METAR KHKA 012053Z AUTO 05005KT 10SM FEW044 29/19 A3003 RMK AO2 SLP167 T02890189 58012 $

More Conditions Fewer Conditions

10-Day Weather Forecast

Almanac

Astronomy

Aug. 01, 2014 Rise Set
Actual Time 6:06 AM CDT 8:04 PM CDT
Civil Twilight 5:38 AM CDT 8:33 PM CDT
Nautical Twilight 5:03 AM CDT 9:07 PM CDT
Astronomical Twilight 4:26 AM CDT 9:44 PM CDT
Moon 11:19 AM CDT 11:01 PM CDT
Length of Visible Light 14h 55m
Length of Day
13h 58m
Tomorrow will be 1m 43s shorter.
Waxing Crescent, 30% of the Moon is Illuminated
Today
Waxing Crescent
Aug 3
First Quarter
Aug 10
Full
Aug 17
Last Quarter
Aug 25
New

Today's Extremes

State Highs State Lows

Community

WunderPhotos

Upload Photos

1,739,736 photos uploaded!

Nearby

Snow Depth

Station Depth Elevation
No new snow has been reported.

Earthquake Activity

City Distance Mag. Time & Date
No recent earthquake activity has been reported nearby.
Minimum magnitude displayed is 2.5.

Coastal Water Temperatures

Place Temperature
No Stations Reporting

Nearby Weather Stations

Station Location Temp. Heat Index Dew Point Humidity Wind Precip. Elev Updated Type
Peach Orchard, Gideon, MO 84.0 °F 86 °F 66 °F 55% NE  at  2.0 mph 0.00 in / hr 263 ft 5:41 PM CDT Rapid Fire
Kennett E911, Kennett, MO 83.4 °F 86 °F 67 °F 58% ESE  at  2.0 mph 0.00 in / hr 262 ft 5:40 PM CDT Rapid Fire
KC0UFP WX, Kennett, MO 88.7 °F 93 °F 68 °F 51% East  at  2.7 mph - / hr 262 ft 5:26 PM CDT Normal
MesoWest PIGGOT , Piggott, AR 90 °F 87 °F - - North  at  - 0.00 in / hr 287 ft 3:45 PM CDT MADIS
MesoWest MALDEN , Campbell, MO 92 °F 88 °F - - North  at  - 0.00 in / hr 288 ft 4:40 PM CDT MADIS
MesoWest GRNWAY , Rector, AR 83 °F 81 °F - - North  at  - 0.00 in / hr 293 ft 4:00 PM CDT MADIS

Show More Stations Show Fewer Stations